KTUL/TUL METAR and TAF weather

Enter ICAO airport designator
Station Type Date Time Source
KTUL METAR 2021/08/02 02:53 UTC NOAA

KTUL 020253Z 35005KT 7SM SCT130 25/20 A3009 RMK AO2 SLP180 T02500200 53015


Station Type Date Time Source
KTUL Decoded METAR 2021/08/02 02:53 UTC NOAA

TULSA INTERNATIONAL AIRPORT, OK, United States (KTUL) 36-12N 95-53W 207M
Aug 01, 2021 - 10:53 PM EDT / 2021.08.02 0253 UTC
Wind: from the N (350 degrees) at 6 MPH (5 KT):0
Visibility: 7 mile(s):0
Sky conditions: partly cloudy
Temperature: 77.0 F (25.0 C)
Dew Point: 68.0 F (20.0 C)
Relative Humidity: 73%
Pressure (altimeter): 30.09 in. Hg (1018 hPa)
Pressure tendency: 0.04 inches (1.5 hPa) higher than three hours ago
ob: KTUL 020253Z 35005KT 7SM SCT130 25/20 A3009 RMK AO2 SLP180 T02500200 53015
cycle: 3

Station Type Date Time Source
KTUL TAF 2021/08/01 19:03 UTC NOAA

TAF
AMD KTUL 011900Z 0119/0218 03010G23KT 5SM HZ BKN120 BKN250
FM020000 02008KT P6SM BKN250
FM021500 05005KT P6SM SCT250

Example: see airport list